Time;durP1;ratioP1;P1;durP2;ratioP2;P2;SDS_P1;SDS_P2;PMS_P1;PMS_P2;Temp;Humidity;BMP_temperature;BMP_pressure;BME280_temperature;BME280_humidity;BME280_pressure;Samples;Min_cycle;Max_cycle;Signal;HPM_P1;HPM_P2
2022/07/08 00:01:47;;;;;;;3.88;1.80;;;17.00;99.90;;;;;;5070197;28;20044;-78
2022/07/08 00:04:14;;;;;;;3.17;1.70;;;16.90;99.90;;;;;;5035400;28;20053;-79
2022/07/08 00:06:42;;;;;;;4.50;1.60;;;16.90;99.90;;;;;;5052153;28;20052;-78
2022/07/08 00:09:10;;;;;;;4.43;1.65;;;16.90;99.90;;;;;;5051994;28;20463;-78
2022/07/08 00:11:40;;;;;;;2.85;1.20;;;16.90;99.90;;;;;;5051571;28;20436;-80
2022/07/08 00:14:08;;;;;;;3.13;1.30;;;16.90;99.90;;;;;;5052027;28;20052;-80
2022/07/08 00:16:40;;;;;;;1.95;1.05;;;16.90;99.90;;;;;;5070070;28;20049;-79
2022/07/08 00:19:07;;;;;;;5.15;1.55;;;16.90;99.90;;;;;;5069906;28;20523;-79
2022/07/08 00:21:35;;;;;;;6.43;1.40;;;16.90;99.90;;;;;;5070179;28;20139;-79
2022/07/08 00:24:02;;;;;;;4.20;1.08;;;16.90;99.90;;;;;;5051726;28;20508;-79
2022/07/08 00:26:30;;;;;;;5.03;1.20;;;16.90;99.90;;;;;;5051928;28;20048;-79
2022/07/08 00:28:58;;;;;;;3.90;1.10;;;16.90;99.90;;;;;;5052352;28;20097;-79
2022/07/08 00:31:25;;;;;;;1.63;0.93;;;16.90;99.90;;;;;;5070361;28;20045;-77
2022/07/08 00:33:54;;;;;;;5.85;1.67;;;16.90;99.90;;;;;;5051871;28;20074;-78
2022/07/08 00:36:22;;;;;;;3.30;1.02;;;16.90;99.90;;;;;;5069633;28;20102;-78
2022/07/08 00:38:49;;;;;;;3.90;1.98;;;16.90;99.90;;;;;;5072102;28;20056;-78
2022/07/08 00:41:17;;;;;;;2.45;1.17;;;16.90;99.90;;;;;;5074155;28;20056;-78
2022/07/08 00:43:47;;;;;;;4.70;1.20;;;16.80;99.90;;;;;;5074231;28;20044;-79
2022/07/08 00:46:15;;;;;;;2.58;1.10;;;16.90;99.90;;;;;;5039914;28;20045;-79
2022/07/08 00:48:43;;;;;;;13.88;2.05;;;16.90;99.90;;;;;;5055819;28;20044;-78
2022/07/08 00:51:14;;;;;;;3.92;1.80;;;16.80;99.90;;;;;;5056295;28;20128;-79
2022/07/08 00:53:45;;;;;;;4.97;1.38;;;16.80;99.90;;;;;;5056244;28;20415;-80
2022/07/08 00:56:13;;;;;;;4.28;1.15;;;16.80;99.90;;;;;;5074016;28;20045;-75
2022/07/08 00:58:41;;;;;;;3.13;1.08;;;16.80;99.90;;;;;;5055403;28;20451;-76
2022/07/08 01:01:09;;;;;;;3.25;1.17;;;16.80;99.90;;;;;;5055478;28;20238;-76
2022/07/08 01:03:36;;;;;;;6.30;0.90;;;16.80;99.90;;;;;;5055849;28;20131;-76
2022/07/08 01:06:04;;;;;;;3.25;1.20;;;16.80;99.90;;;;;;5055835;28;20106;-76
2022/07/08 01:08:34;;;;;;;5.60;1.50;;;16.80;99.90;;;;;;5072947;28;20524;-76
2022/07/08 01:11:01;;;;;;;4.07;1.73;;;16.80;99.90;;;;;;5038558;28;20148;-76
2022/07/08 01:13:29;;;;;;;3.47;1.20;;;16.80;99.90;;;;;;5055399;28;20048;-75
2022/07/08 01:15:56;;;;;;;4.90;1.20;;;16.80;99.90;;;;;;5055800;28;20135;-75
2022/07/08 01:18:27;;;;;;;7.63;1.70;;;16.80;99.90;;;;;;5055484;28;20548;-75
2022/07/08 01:20:56;;;;;;;7.70;1.33;;;16.80;99.90;;;;;;5038962;28;20143;-75
2022/07/08 01:23:24;;;;;;;15.05;3.38;;;16.80;99.90;;;;;;5073620;28;20083;-76
2022/07/08 01:25:53;;;;;;;20.23;3.17;;;16.80;99.90;;;;;;5073369;28;20134;-75
2022/07/08 01:28:21;;;;;;;29.27;3.47;;;16.80;99.90;;;;;;5055648;28;20071;-75
2022/07/08 01:30:48;;;;;;;23.60;3.00;;;16.80;99.90;;;;;;5073496;28;20574;-76
2022/07/08 01:33:16;;;;;;;21.48;3.20;;;16.80;99.90;;;;;;5055662;28;20055;-77
2022/07/08 01:35:43;;;;;;;22.25;3.30;;;16.70;99.90;;;;;;5055282;28;20055;-77
2022/07/08 01:38:12;;;;;;;22.30;4.32;;;16.70;99.90;;;;;;5055086;28;20079;-77
2022/07/08 01:40:40;;;;;;;22.67;3.20;;;16.70;99.90;;;;;;5055363;28;20048;-76
2022/07/08 01:43:07;;;;;;;15.75;2.55;;;16.70;99.90;;;;;;5055106;28;20067;-76
2022/07/08 01:45:35;;;;;;;15.80;3.10;;;16.70;99.90;;;;;;5073412;28;20089;-76
2022/07/08 01:48:02;;;;;;;2.10;1.33;;;16.70;99.90;;;;;;5054878;28;20076;-76
2022/07/08 01:50:30;;;;;;;2.80;0.95;;;16.80;99.90;;;;;;5071568;28;20049;-76
2022/07/08 01:52:58;;;;;;;3.63;1.13;;;16.80;99.90;;;;;;5054697;28;20052;-77
2022/07/08 01:55:27;;;;;;;1.65;0.85;;;16.80;99.90;;;;;;5054652;28;20051;-76
2022/07/08 01:57:54;;;;;;;6.00;2.05;;;16.90;99.90;;;;;;5055184;28;20135;-76
2022/07/08 02:00:22;;;;;;;2.67;0.77;;;16.90;99.90;;;;;;5054781;28;20398;-77
2022/07/08 02:02:49;;;;;;;1.88;0.98;;;16.90;99.90;;;;;;5072845;28;20044;-76
2022/07/08 02:05:17;;;;;;;1.67;1.00;;;16.90;99.90;;;;;;5072346;28;20520;-76
2022/07/08 02:07:44;;;;;;;6.35;1.33;;;16.90;99.90;;;;;;5072683;28;20114;-76
2022/07/08 02:10:12;;;;;;;2.95;1.05;;;16.90;99.90;;;;;;5054554;28;20509;-76
2022/07/08 02:12:40;;;;;;;2.35;0.65;;;16.90;99.90;;;;;;5037525;28;20045;-76
2022/07/08 02:15:09;;;;;;;3.80;0.98;;;16.90;99.90;;;;;;5054119;28;20045;-76
2022/07/08 02:17:38;;;;;;;3.83;1.10;;;16.90;99.90;;;;;;5071524;28;20056;-75
2022/07/08 02:20:08;;;;;;;4.70;1.20;;;17.00;99.90;;;;;;5037632;28;20086;-76
2022/07/08 02:22:36;;;;;;;6.93;1.05;;;17.00;99.90;;;;;;5054027;28;20079;-77
2022/07/08 02:25:05;;;;;;;3.33;1.45;;;17.10;99.90;;;;;;5054470;28;20509;-75
2022/07/08 02:27:32;;;;;;;5.65;0.82;;;17.10;99.90;;;;;;5072210;28;20175;-76
2022/07/08 02:30:01;;;;;;;1.00;0.90;;;17.10;99.90;;;;;;5054454;28;20098;-76
2022/07/08 02:32:29;;;;;;;3.80;0.95;;;17.10;99.90;;;;;;5037818;28;20055;-76
2022/07/08 02:34:57;;;;;;;4.13;0.80;;;17.00;99.90;;;;;;5054628;28;20052;-76
2022/07/08 02:37:24;;;;;;;1.67;0.90;;;17.00;99.90;;;;;;5037231;28;20155;-75
2022/07/08 02:39:52;;;;;;;3.30;1.20;;;17.00;99.90;;;;;;5072023;28;20094;-75
2022/07/08 02:42:19;;;;;;;2.55;1.10;;;17.00;99.90;;;;;;5071889;28;20151;-77
2022/07/08 02:44:47;;;;;;;3.92;1.10;;;17.00;99.90;;;;;;5071862;28;20087;-75
2022/07/08 02:47:16;;;;;;;2.20;1.13;;;16.90;99.90;;;;;;5037110;28;20094;-76
2022/07/08 02:49:44;;;;;;;2.28;0.93;;;16.90;99.90;;;;;;5072024;28;20147;-76
2022/07/08 02:52:11;;;;;;;6.05;1.25;;;16.90;99.90;;;;;;5071813;28;20048;-76
2022/07/08 02:54:39;;;;;;;3.47;1.10;;;17.00;99.90;;;;;;5037595;28;20076;-75
2022/07/08 02:57:07;;;;;;;2.53;1.10;;;17.00;99.90;;;;;;5071209;28;20060;-76
2022/07/08 02:59:35;;;;;;;8.20;1.00;;;17.00;99.90;;;;;;5071289;28;20049;-76
2022/07/08 03:02:03;;;;;;;3.08;1.20;;;17.10;99.90;;;;;;5071372;28;20546;-75
2022/07/08 03:04:31;;;;;;;4.75;0.90;;;17.20;99.90;;;;;;5071331;28;20554;-75
2022/07/08 03:06:59;;;;;;;2.83;1.48;;;17.30;99.90;;;;;;5071726;28;20049;-76
2022/07/08 03:09:27;;;;;;;2.90;1.00;;;17.40;99.90;;;;;;5071680;28;20508;-75
2022/07/08 03:11:54;;;;;;;3.67;1.10;;;17.40;99.90;;;;;;5071099;28;20138;-77
2022/07/08 03:14:22;;;;;;;4.85;1.60;;;17.40;99.90;;;;;;5071646;28;20072;-75
2022/07/08 03:16:49;;;;;;;5.10;1.15;;;17.40;99.90;;;;;;5037118;28;20051;-75
2022/07/08 03:19:17;;;;;;;1.17;0.70;;;17.50;99.90;;;;;;5053234;28;20060;-74
2022/07/08 03:21:46;;;;;;;3.05;1.58;;;17.70;99.90;;;;;;5053386;28;20055;-75
2022/07/08 03:24:13;;;;;;;2.60;1.02;;;17.90;99.90;;;;;;5071250;28;20052;-75
2022/07/08 03:26:41;;;;;;;6.60;1.15;;;17.90;99.90;;;;;;5053241;28;20056;-75
2022/07/08 03:29:09;;;;;;;4.07;0.85;;;18.00;99.90;;;;;;5071347;28;20420;-75
2022/07/08 03:31:36;;;;;;;6.47;0.90;;;18.20;99.90;;;;;;5052861;28;20052;-73
2022/07/08 03:34:04;;;;;;;5.55;1.08;;;18.20;99.90;;;;;;5070828;28;20041;-75
2022/07/08 03:36:31;;;;;;;3.20;1.38;;;18.40;99.90;;;;;;5036533;28;20048;-76
2022/07/08 03:39:02;;;;;;;2.25;0.93;;;18.50;99.90;;;;;;5070217;28;20139;-77
2022/07/08 03:41:29;;;;;;;3.83;1.02;;;18.60;99.90;;;;;;5070931;28;20052;-77
2022/07/08 03:43:56;;;;;;;4.18;1.67;;;18.60;99.90;;;;;;5052810;28;20059;-76
2022/07/08 03:46:24;;;;;;;2.00;0.85;;;18.70;99.90;;;;;;5052653;28;20326;-76
2022/07/08 03:48:52;;;;;;;5.72;1.40;;;18.70;99.90;;;;;;5036431;28;20063;-76
2022/07/08 03:51:20;;;;;;;1.23;0.60;;;18.80;99.90;;;;;;5036199;28;20048;-76
2022/07/08 03:53:47;;;;;;;1.98;0.82;;;18.70;99.90;;;;;;5052571;28;20139;-76
2022/07/08 03:56:16;;;;;;;5.00;0.90;;;18.60;99.90;;;;;;5036290;28;20048;-77
2022/07/08 03:58:44;;;;;;;1.23;0.88;;;18.60;99.90;;;;;;5070587;28;20072;-75
2022/07/08 04:01:11;;;;;;;3.40;1.33;;;18.60;99.90;;;;;;5052144;28;20539;-76
2022/07/08 04:03:38;;;;;;;3.42;1.52;;;18.60;99.90;;;;;;5070282;28;20040;-76
2022/07/08 04:06:07;;;;;;;2.85;0.82;;;18.60;99.90;;;;;;5051958;28;20091;-77
2022/07/08 04:08:34;;;;;;;2.75;1.25;;;18.60;99.90;;;;;;5035335;28;20059;-77
2022/07/08 04:11:02;;;;;;;3.10;1.10;;;18.70;99.90;;;;;;5069808;28;20440;-76
2022/07/08 04:13:31;;;;;;;1.63;0.70;;;18.70;99.90;;;;;;5051921;28;20045;-77
2022/07/08 04:15:58;;;;;;;2.17;1.02;;;18.70;99.90;;;;;;5070387;28;20049;-78
2022/07/08 04:18:26;;;;;;;1.38;0.90;;;18.70;99.90;;;;;;5036052;28;20047;-78
2022/07/08 04:20:53;;;;;;;2.00;1.50;;;18.60;99.90;;;;;;5052590;28;20428;-77
2022/07/08 04:23:21;;;;;;;2.42;0.90;;;18.50;99.90;;;;;;5052364;28;20041;-77
2022/07/08 04:25:48;;;;;;;3.88;1.00;;;18.30;99.90;;;;;;5052131;28;20056;-77
2022/07/08 04:28:16;;;;;;;1.98;0.73;;;18.20;99.90;;;;;;5051866;28;20076;-77
2022/07/08 04:30:45;;;;;;;1.75;0.80;;;18.10;99.90;;;;;;5035500;28;20090;-77
2022/07/08 04:33:13;;;;;;;3.80;0.90;;;18.00;99.90;;;;;;5052210;28;20056;-75
2022/07/08 04:35:40;;;;;;;6.38;3.58;;;18.20;99.90;;;;;;5052621;28;20045;-75
2022/07/08 04:38:08;;;;;;;2.08;0.80;;;18.30;99.90;;;;;;5070476;28;20091;-76
2022/07/08 04:40:35;;;;;;;4.25;2.17;;;18.50;99.90;;;;;;5070248;28;20051;-75
2022/07/08 04:43:03;;;;;;;3.08;1.00;;;18.70;99.90;;;;;;5051981;28;20151;-75
2022/07/08 04:45:31;;;;;;;2.70;1.42;;;18.70;99.90;;;;;;5051643;28;20473;-75
2022/07/08 04:48:00;;;;;;;1.88;0.80;;;18.70;99.90;;;;;;5069686;28;20131;-75
2022/07/08 04:50:28;;;;;;;3.92;1.27;;;18.80;99.90;;;;;;5069950;28;20045;-74
2022/07/08 04:52:56;;;;;;;4.60;1.13;;;18.90;99.90;;;;;;5051379;28;20424;-80
2022/07/08 04:55:29;;;;;;;2.00;0.70;;;19.10;99.90;;;;;;5069384;28;20041;-76
2022/07/08 04:57:57;;;;;;;1.40;0.68;;;19.30;99.90;;;;;;5051687;28;20056;-75
2022/07/08 05:00:26;;;;;;;1.55;1.05;;;19.20;99.90;;;;;;5069897;28;20049;-76
2022/07/08 05:02:54;;;;;;;0.77;0.70;;;19.10;99.90;;;;;;5051603;28;20048;-76
2022/07/08 05:05:23;;;;;;;3.35;0.73;;;19.00;99.90;;;;;;5069665;28;20122;-77
2022/07/08 05:07:51;;;;;;;3.25;1.00;;;18.90;99.90;;;;;;5069416;28;20071;-77
2022/07/08 05:10:22;;;;;;;3.60;0.50;;;18.80;99.90;;;;;;5051054;28;20140;-77
2022/07/08 05:12:50;;;;;;;4.35;0.98;;;18.70;99.90;;;;;;5069705;28;20051;-75
2022/07/08 05:15:17;;;;;;;2.95;0.82;;;18.80;99.90;;;;;;5051812;28;20067;-75
2022/07/08 05:17:46;;;;;;;2.45;0.50;;;18.80;99.90;;;;;;5069476;28;20546;-75
2022/07/08 05:20:13;;;;;;;1.17;0.63;;;19.00;99.90;;;;;;5069072;28;20074;-75
2022/07/08 05:22:42;;;;;;;1.88;0.77;;;19.20;99.90;;;;;;5068855;28;20518;-74
2022/07/08 05:25:10;;;;;;;1.35;1.02;;;19.20;99.90;;;;;;5054158;28;20044;-76
2022/07/08 05:27:38;;;;;;;1.90;0.80;;;19.20;99.90;;;;;;5070335;28;20055;-74
2022/07/08 05:30:09;;;;;;;2.00;0.70;;;19.20;99.90;;;;;;5038063;28;20466;-74
2022/07/08 05:32:46;;;;;;;1.17;0.80;;;19.20;99.90;;;;;;5055168;28;20622;-75
2022/07/08 05:35:14;;;;;;;2.40;1.15;;;19.30;99.90;;;;;;5054549;28;20045;-74
2022/07/08 05:37:43;;;;;;;1.95;0.75;;;19.30;99.90;;;;;;5072425;28;20050;-76
2022/07/08 05:40:11;;;;;;;2.20;0.70;;;19.50;99.90;;;;;;5072673;28;20044;-73
2022/07/08 05:42:39;;;;;;;4.32;0.75;;;19.60;99.90;;;;;;5072687;28;20123;-74
2022/07/08 05:45:08;;;;;;;2.55;0.60;;;19.70;99.90;;;;;;5073298;28;20052;-73
2022/07/08 05:47:36;;;;;;;3.00;0.77;;;19.80;99.90;;;;;;5037770;28;20508;-76
2022/07/08 05:50:05;;;;;;;1.13;0.68;;;19.90;99.90;;;;;;5054753;28;20049;-74
2022/07/08 05:52:33;;;;;;;1.70;0.73;;;20.10;99.90;;;;;;5070670;28;20459;-74
2022/07/08 05:55:02;;;;;;;2.53;0.70;;;20.50;99.90;;;;;;5054208;28;20056;-74
2022/07/08 05:57:30;;;;;;;3.50;0.70;;;20.90;99.90;;;;;;5071824;28;20139;-74
2022/07/08 05:59:58;;;;;;;0.60;0.47;;;21.20;99.90;;;;;;5053883;28;20148;-75
2022/07/08 06:02:25;;;;;;;1.88;0.90;;;21.40;99.90;;;;;;5051702;28;20432;-74
2022/07/08 06:04:53;;;;;;;3.05;0.77;;;21.40;99.90;;;;;;5052452;28;20052;-75
2022/07/08 06:07:20;;;;;;;1.27;1.08;;;21.40;99.90;;;;;;5037060;28;20143;-75
2022/07/08 06:09:48;;;;;;;1.42;0.60;;;21.20;99.90;;;;;;5053459;28;20075;-76
2022/07/08 06:12:16;;;;;;;1.38;0.50;;;21.10;99.90;;;;;;5071667;28;20114;-76
2022/07/08 06:14:44;;;;;;;0.70;0.70;;;20.90;99.90;;;;;;5072388;28;20056;-76
2022/07/08 06:17:11;;;;;;;2.67;0.60;;;20.70;99.90;;;;;;5071955;28;20051;-75
2022/07/08 06:19:39;;;;;;;3.55;0.60;;;20.60;99.90;;;;;;5072365;28;20051;-75
2022/07/08 06:22:08;;;;;;;2.13;0.90;;;20.80;99.90;;;;;;5071843;28;20044;-75
2022/07/08 06:24:36;;;;;;;2.83;0.70;;;21.30;99.90;;;;;;5054009;28;20102;-76
2022/07/08 06:27:04;;;;;;;1.77;0.40;;;21.50;99.90;;;;;;5053792;28;20052;-76
2022/07/08 06:29:33;;;;;;;1.27;0.50;;;21.30;99.90;;;;;;5037735;28;20055;-76
2022/07/08 06:32:01;;;;;;;4.50;0.65;;;21.50;99.90;;;;;;5071915;28;20509;-75
2022/07/08 06:34:28;;;;;;;6.85;0.85;;;22.30;99.90;;;;;;5036536;28;20122;-75
2022/07/08 06:36:59;;;;;;;1.85;0.80;;;22.70;99.90;;;;;;5071042;28;20076;-75
2022/07/08 06:39:26;;;;;;;2.55;0.55;;;22.60;99.90;;;;;;5053053;28;20048;-75
2022/07/08 06:41:54;;;;;;;2.88;0.90;;;22.60;99.90;;;;;;5053222;28;20399;-76
2022/07/08 06:44:21;;;;;;;1.67;0.70;;;22.60;99.90;;;;;;5071156;28;20110;-77
2022/07/08 06:46:50;;;;;;;1.10;0.60;;;23.20;99.90;;;;;;5052689;28;20059;-74
2022/07/08 06:49:17;;;;;;;0.70;0.60;;;23.80;99.90;;;;;;5070970;28;20126;-75
2022/07/08 06:51:45;;;;;;;2.10;0.50;;;24.30;99.90;;;;;;5071091;28;20566;-76
2022/07/08 06:56:58;;;;;;;2.80;1.50;;;25.80;96.50;;;;;;5051319;28;20045;-81
2022/07/08 06:59:25;;;;;;;1.33;0.93;;;26.60;90.90;;;;;;5052437;28;20049;-82
2022/07/08 07:01:54;;;;;;;0.65;0.52;;;27.50;87.00;;;;;;5052039;28;20063;-82
2022/07/08 07:04:21;;;;;;;0.50;0.50;;;27.50;78.00;;;;;;5051455;28;20132;-82
2022/07/08 07:06:49;;;;;;;2.75;0.80;;;27.30;77.20;;;;;;5050638;28;20053;-83
2022/07/08 07:09:19;;;;;;;1.38;0.40;;;27.00;75.90;;;;;;5052953;28;20057;-85
2022/07/08 07:11:47;;;;;;;3.78;0.73;;;26.70;73.90;;;;;;5046535;28;20096;-86
2022/07/08 07:14:14;;;;;;;5.32;0.85;;;26.40;76.10;;;;;;5049081;28;20420;-85
2022/07/08 07:16:42;;;;;;;1.58;0.93;;;26.20;75.60;;;;;;5074899;28;20132;-87
2022/07/08 07:19:12;;;;;;;92.93;21.60;;;26.10;74.40;;;;;;5039131;28;20523;-88
2022/07/08 07:21:39;;;;;;;105.63;28.10;;;26.00;76.20;;;;;;5054325;28;20416;-87
2022/07/08 07:24:08;;;;;;;7.53;2.65;;;25.80;78.20;;;;;;5056398;28;20049;-89
2022/07/08 07:26:36;;;;;;;4.13;1.08;;;26.00;77.00;;;;;;5076115;28;20052;-89
2022/07/08 07:29:04;;;;;;;1.63;0.70;;;27.00;74.30;;;;;;5055206;28;20068;-87
2022/07/08 07:31:32;;;;;;;0.73;0.63;;;27.30;69.00;;;;;;5056817;28;20068;-87
2022/07/08 07:34:00;;;;;;;2.42;0.65;;;26.90;72.50;;;;;;5048029;28;20066;-87
2022/07/08 07:36:29;;;;;;;2.53;0.70;;;26.60;71.60;;;;;;5057190;28;20515;-85
2022/07/08 07:38:57;;;;;;;1.33;0.75;;;27.30;72.50;;;;;;5072202;28;20051;-89
2022/07/08 07:41:24;;;;;;;3.50;0.85;;;28.20;65.80;;;;;;5073160;28;20045;-80
2022/07/08 07:43:54;;;;;;;1.77;1.25;;;28.90;65.10;;;;;;5030330;28;20067;-80
2022/07/08 07:46:22;;;;;;;2.17;1.00;;;29.50;62.20;;;;;;5053185;28;20421;-80
2022/07/08 07:48:50;;;;;;;0.70;0.60;;;29.80;61.60;;;;;;5070096;28;20515;-79
2022/07/08 07:51:18;;;;;;;3.25;1.48;;;30.50;59.90;;;;;;5069108;28;20083;-80
2022/07/08 07:53:47;;;;;;;3.53;0.75;;;30.40;59.70;;;;;;5036631;28;20135;-81
2022/07/08 07:56:14;;;;;;;0.73;0.52;;;29.80;61.10;;;;;;5052652;28;20126;-80
2022/07/08 07:58:42;;;;;;;1.48;0.52;;;29.20;59.70;;;;;;5052890;28;20496;-80
2022/07/08 08:01:13;;;;;;;2.75;1.10;;;28.40;61.50;;;;;;5036152;28;20524;-80
2022/07/08 08:03:40;;;;;;;0.80;0.52;;;27.50;63.10;;;;;;5053045;28;20051;-79
2022/07/08 08:06:08;;;;;;;3.75;0.55;;;27.30;64.20;;;;;;5052914;28;20483;-80
2022/07/08 08:08:36;;;;;;;1.85;0.60;;;27.80;64.60;;;;;;5052768;28;20029;-79
2022/07/08 08:11:06;;;;;;;3.15;0.95;;;28.80;63.70;;;;;;5052233;28;20130;-80
2022/07/08 08:13:33;;;;;;;2.20;0.55;;;29.90;60.70;;;;;;5070750;28;20101;-81
2022/07/08 08:16:01;;;;;;;0.50;0.50;;;30.50;58.90;;;;;;5070675;28;20053;-82
2022/07/08 08:18:29;;;;;;;1.55;1.00;;;31.30;58.70;;;;;;5055314;28;20133;-81
2022/07/08 08:20:57;;;;;;;3.53;0.63;;;31.40;56.90;;;;;;5071487;28;20476;-83
2022/07/08 08:23:24;;;;;;;3.97;1.17;;;31.10;58.00;;;;;;5052788;28;20089;-82
2022/07/08 08:25:52;;;;;;;0.77;0.60;;;31.40;58.20;;;;;;5036229;28;20079;-80
2022/07/08 08:28:25;;;;;;;1.73;0.88;;;31.50;56.60;;;;;;5076118;28;20098;-85
2022/07/08 08:30:53;;;;;;;2.67;0.73;;;31.30;58.20;;;;;;5071668;28;20045;-80
2022/07/08 08:33:20;;;;;;;1.67;0.60;;;31.40;58.60;;;;;;5072585;28;20075;-87
2022/07/08 08:35:48;;;;;;;3.63;1.00;;;31.60;55.90;;;;;;5037806;28;20098;-86
2022/07/08 08:38:15;;;;;;;1.42;0.75;;;32.00;56.90;;;;;;5071235;28;20141;-83
2022/07/08 08:40:43;;;;;;;1.55;1.02;;;32.10;56.10;;;;;;5071499;28;20060;-87
2022/07/08 08:43:11;;;;;;;2.35;0.60;;;32.60;55.40;;;;;;5038058;28;20048;-86
2022/07/08 08:45:39;;;;;;;1.95;0.85;;;32.00;53.50;;;;;;5071199;28;20056;-86
2022/07/08 08:48:11;;;;;;;3.35;0.90;;;31.70;55.60;;;;;;5037165;28;20054;-88
2022/07/08 08:50:56;;;;;;;1.17;0.82;;;31.90;56.10;;;;;;5071777;28;20224;-85
2022/07/08 08:53:27;;;;;;;7.07;1.45;;;32.60;55.50;;;;;;5070971;28;20082;-88
2022/07/08 08:55:56;;;;;;;1.65;1.20;;;33.20;54.50;;;;;;5071641;28;20049;-86
2022/07/08 08:58:24;;;;;;;3.47;0.93;;;33.10;51.80;;;;;;5036874;28;20114;-86
2022/07/08 09:00:53;;;;;;;1.33;0.70;;;32.80;51.60;;;;;;5074701;28;20053;-85
2022/07/08 09:03:21;;;;;;;1.75;0.60;;;32.40;53.70;;;;;;5075738;28;20053;-84
2022/07/08 09:05:49;;;;;;;5.07;1.00;;;32.70;52.70;;;;;;5075988;28;20127;-88
2022/07/08 09:08:17;;;;;;;2.58;0.60;;;32.80;51.30;;;;;;5076334;28;20055;-78
2022/07/08 09:10:44;;;;;;;4.60;0.95;;;32.30;52.80;;;;;;5054542;28;20076;-78
2022/07/08 09:13:14;;;;;;;2.55;0.85;;;32.80;53.10;;;;;;5038427;28;20036;-83
2022/07/08 09:15:43;;;;;;;0.80;0.50;;;33.40;51.80;;;;;;5071501;28;20048;-84
2022/07/08 09:18:14;;;;;;;0.80;0.50;;;33.90;51.00;;;;;;5056586;28;20056;-83
2022/07/08 09:20:43;;;;;;;3.13;0.70;;;34.30;49.40;;;;;;5061791;28;20048;-83
2022/07/08 09:23:14;;;;;;;1.35;0.90;;;34.70;49.60;;;;;;5064185;28;20045;-83
2022/07/08 09:25:42;;;;;;;2.97;0.80;;;34.80;49.60;;;;;;5056023;28;20144;-84
2022/07/08 09:28:10;;;;;;;1.63;0.70;;;34.80;47.40;;;;;;5073592;28;20068;-85
2022/07/08 09:30:39;;;;;;;0.80;0.80;;;34.70;49.30;;;;;;5073964;28;20079;-77
2022/07/08 09:33:06;;;;;;;1.67;0.85;;;34.60;49.10;;;;;;5055210;28;20044;-76
2022/07/08 09:35:38;;;;;;;4.07;0.88;;;34.60;47.40;;;;;;5073805;28;20076;-77
2022/07/08 09:38:06;;;;;;;;;;;35.10;49.00;;;;;;5055944;28;20063;-76
2022/07/08 09:40:34;;;;;;;1.52;0.40;;;35.50;47.10;;;;;;5073213;28;19963;-77
2022/07/08 09:43:03;;;;;;;5.07;1.52;;;35.30;46.20;;;;;;5073264;28;20048;-78
2022/07/08 09:45:32;;;;;;;0.70;0.50;;;35.00;47.50;;;;;;5034495;28;20059;-79
2022/07/08 09:48:05;;;;;;;0.65;0.60;;;35.30;47.70;;;;;;5053277;28;20049;-78
2022/07/08 09:50:36;;;;;;;1.10;0.80;;;35.40;48.10;;;;;;5036458;28;20528;-78
2022/07/08 09:53:14;;;;;;;1.63;0.90;;;35.00;45.90;;;;;;5054117;28;20476;-78
2022/07/08 09:55:43;;;;;;;0.70;0.68;;;34.70;46.20;;;;;;5061372;28;20145;-78
2022/07/08 09:58:14;;;;;;;3.22;0.82;;;34.20;45.80;;;;;;5063543;28;20044;-80
2022/07/08 10:00:46;;;;;;;3.03;0.60;;;33.90;46.10;;;;;;5069819;28;20428;-79
2022/07/08 10:03:15;;;;;;;1.10;0.60;;;34.00;47.00;;;;;;5078454;28;20139;-79
2022/07/08 10:05:47;;;;;;;0.80;0.70;;;34.30;46.00;;;;;;5073051;28;20517;-76
2022/07/08 10:08:16;;;;;;;1.30;0.60;;;34.60;46.50;;;;;;5054484;28;20472;-78
2022/07/08 10:10:46;;;;;;;1.00;0.60;;;34.90;45.90;;;;;;5073928;28;20419;-78
2022/07/08 10:13:15;;;;;;;1.75;0.77;;;35.20;46.80;;;;;;5072253;28;20102;-77
2022/07/08 10:15:45;;;;;;;2.00;0.90;;;35.90;47.30;;;;;;5041657;28;20559;-78
2022/07/08 10:18:20;;;;;;;2.05;1.00;;;36.30;45.40;;;;;;5053772;28;20067;-78
2022/07/08 10:20:53;;;;;;;1.23;0.52;;;36.60;44.50;;;;;;5057882;28;20053;-77
2022/07/08 10:23:25;;;;;;;2.67;0.60;;;36.60;44.80;;;;;;5054036;28;20044;-77
2022/07/08 10:25:56;;;;;;;0.82;0.57;;;36.70;44.30;;;;;;5043376;28;20106;-78
2022/07/08 10:28:38;;;;;;;1.10;0.47;;;37.00;45.10;;;;;;5068392;28;20513;-76
2022/07/08 10:31:23;;;;;;;0.70;0.65;;;37.00;44.10;;;;;;5066957;28;20294;-77
2022/07/08 10:34:02;;;;;;;1.85;0.75;;;36.80;44.60;;;;;;5051522;28;20070;-78
2022/07/08 10:36:45;;;;;;;0.55;0.55;;;36.60;44.60;;;;;;5067674;28;20052;-77
2022/07/08 10:39:13;;;;;;;3.30;0.70;;;36.70;44.60;;;;;;5081368;28;20066;-77
2022/07/08 10:41:58;;;;;;;3.03;0.47;;;36.60;44.40;;;;;;5088396;28;20042;-77
2022/07/08 10:44:52;;;;;;;2.63;0.90;;;36.60;45.00;;;;;;5058454;28;20060;-78
2022/07/08 10:47:28;;;;;;;2.13;0.63;;;36.20;45.40;;;;;;5065528;28;20071;-76
2022/07/08 10:50:06;;;;;;;2.05;1.00;;;36.70;46.00;;;;;;5033056;28;20051;-78
2022/07/08 10:52:44;;;;;;;2.35;0.70;;;37.30;44.90;;;;;;5049455;28;20145;-77
2022/07/08 10:55:14;;;;;;;1.10;0.73;;;37.70;43.30;;;;;;5071446;28;20055;-78
2022/07/08 10:57:55;;;;;;;1.27;0.65;;;37.20;44.20;;;;;;5086793;28;20052;-78
2022/07/08 11:00:27;;;;;;;4.20;1.20;;;37.00;44.50;;;;;;5070184;28;20134;-76
2022/07/08 11:03:02;;;;;;;;;;;36.00;44.70;;;;;;5051327;28;20088;-77
2022/07/08 11:05:37;;;;;;;3.45;1.00;;;34.70;45.80;;;;;;5058014;28;20335;-77
2022/07/08 11:08:26;;;;;;;1.63;0.90;;;32.80;48.10;;;;;;5048777;28;20063;-75
2022/07/08 11:10:56;;;;;;;1.38;0.85;;;31.20;51.00;;;;;;5067594;28;20516;-77
2022/07/08 11:13:27;;;;;;;3.22;0.98;;;30.00;51.60;;;;;;5067508;28;20056;-78
2022/07/08 11:16:01;;;;;;;4.05;1.42;;;29.10;52.60;;;;;;5047671;28;20451;-76
2022/07/08 11:18:32;;;;;;;4.28;3.88;;;28.20;55.10;;;;;;5067204;28;20087;-77
2022/07/08 11:21:03;;;;;;;1.88;0.90;;;27.50;56.40;;;;;;5049562;28;20444;-76
2022/07/08 11:23:32;;;;;;;4.68;0.75;;;26.90;57.10;;;;;;5065586;28;20064;-76
2022/07/08 11:26:00;;;;;;;2.97;0.80;;;26.50;57.40;;;;;;5067859;28;20629;-76
2022/07/08 11:28:28;;;;;;;6.38;1.10;;;26.30;58.50;;;;;;5068332;28;20530;-77
2022/07/08 11:30:57;;;;;;;1.65;1.52;;;26.10;59.00;;;;;;5067999;28;20041;-78
2022/07/08 11:33:39;;;;;;;6.30;1.10;;;26.10;59.10;;;;;;5064145;28;20418;-77
2022/07/08 11:36:14;;;;;;;1.77;0.60;;;26.20;59.00;;;;;;5071641;28;20145;-78
2022/07/08 11:38:43;;;;;;;5.35;0.77;;;26.40;58.90;;;;;;5066351;28;20106;-77
2022/07/08 11:41:10;;;;;;;1.23;0.50;;;26.80;58.10;;;;;;5069380;28;20648;-77
2022/07/08 11:43:38;;;;;;;2.58;0.80;;;27.00;57.60;;;;;;5071552;28;20075;-77
2022/07/08 11:46:16;;;;;;;1.27;0.75;;;26.90;57.60;;;;;;5067870;28;20102;-77
2022/07/08 11:48:44;;;;;;;3.38;0.50;;;26.80;58.10;;;;;;5049582;28;20471;-77
2022/07/08 11:51:14;;;;;;;2.22;1.08;;;26.50;58.20;;;;;;5049331;28;20040;-77
2022/07/08 11:53:46;;;;;;;2.75;0.77;;;26.40;58.10;;;;;;5047818;28;20052;-76
2022/07/08 11:56:14;;;;;;;2.40;1.10;;;26.40;59.10;;;;;;5076315;28;20076;-77
2022/07/08 11:58:42;;;;;;;4.90;0.77;;;26.40;58.80;;;;;;5069506;28;20059;-76
2022/07/08 12:01:10;;;;;;;2.15;0.68;;;26.50;58.70;;;;;;5068387;28;20052;-77
2022/07/08 12:03:38;;;;;;;0.82;0.65;;;26.50;58.90;;;;;;5087490;28;20056;-76
2022/07/08 12:06:06;;;;;;;2.25;0.75;;;26.40;59.30;;;;;;5073446;28;20047;-76
2022/07/08 12:08:41;;;;;;;2.50;0.68;;;26.10;60.40;;;;;;5066035;28;20473;-76
2022/07/08 12:11:15;;;;;;;1.05;0.68;;;25.40;62.10;;;;;;5068097;28;20056;-77
2022/07/08 12:13:49;;;;;;;5.05;0.60;;;24.70;64.50;;;;;;5068631;28;20056;-76
2022/07/08 12:16:37;;;;;;;1.42;0.98;;;24.30;65.80;;;;;;5067655;28;20049;-77
2022/07/08 12:19:07;;;;;;;1.65;0.82;;;24.00;67.40;;;;;;5082303;28;20575;-76
2022/07/08 12:21:37;;;;;;;1.67;0.73;;;23.80;66.80;;;;;;5046964;28;20386;-76
2022/07/08 12:24:14;;;;;;;2.50;1.00;;;23.80;67.90;;;;;;5079885;28;20052;-76
2022/07/08 12:26:53;;;;;;;8.02;1.60;;;23.90;67.90;;;;;;5068233;28;20083;-82
2022/07/08 12:29:28;;;;;;;2.15;0.73;;;24.00;66.40;;;;;;5067773;28;20052;-84
2022/07/08 12:31:58;;;;;;;1.73;1.08;;;23.80;66.60;;;;;;5079856;28;20147;-82
2022/07/08 12:34:27;;;;;;;0.32;0.32;;;23.70;67.20;;;;;;5005305;28;20197;-82
2022/07/08 12:37:16;;;;;;;1.17;0.60;;;23.80;68.30;;;;;;5063848;28;20880;-84
2022/07/08 12:39:49;;;;;;;3.60;1.48;;;24.40;67.30;;;;;;5066545;28;20055;-82
2022/07/08 12:42:28;;;;;;;3.75;0.50;;;24.90;66.40;;;;;;5020564;28;20088;-80
2022/07/08 12:44:56;;;;;;;1.75;0.60;;;24.90;67.10;;;;;;5050694;28;20150;-81
2022/07/08 12:47:27;;;;;;;6.47;0.80;;;24.80;68.30;;;;;;5036364;28;20527;-77
2022/07/08 12:50:06;;;;;;;0.90;0.73;;;24.70;69.30;;;;;;5047811;28;20135;-82
2022/07/08 12:52:34;;;;;;;2.58;1.00;;;24.40;70.00;;;;;;5088746;28;20056;-85
2022/07/08 12:55:01;;;;;;;4.57;0.60;;;24.20;71.60;;;;;;5071160;28;20466;-80
2022/07/08 12:57:32;;;;;;;2.65;1.42;;;24.10;73.00;;;;;;5087814;28;20052;-81
2022/07/08 12:59:59;;;;;;;3.55;0.60;;;24.00;73.00;;;;;;5077771;28;20053;-81
2022/07/08 13:02:27;;;;;;;3.58;1.00;;;23.70;73.00;;;;;;5049462;28;20048;-84